Time;durP1;ratioP1;P1;durP2;ratioP2;P2;SDS_P1;SDS_P2;PMS_P1;PMS_P2;Temp;Humidity;BMP_temperature;BMP_pressure;BME280_temperature;BME280_humidity;BME280_pressure;Samples;Min_cycle;Max_cycle;Signal;HPM_P1;HPM_P2
2024/01/17 00:00:38;;;;;;;5.00;1.90;;;;;;;-6.49;100.00;99935.94;104168;1266;71866;-53
2024/01/17 00:03:06;;;;;;;7.10;1.60;;;;;;;-6.57;100.00;99939.09;104132;1264;204950;-53
2024/01/17 00:05:34;;;;;;;6.30;1.80;;;;;;;-6.65;100.00;99939.93;104375;1263;59154;-53
2024/01/17 00:08:01;;;;;;;5.20;2.10;;;;;;;-6.71;100.00;99942.40;104115;1262;72678;-53
2024/01/17 00:10:29;;;;;;;6.10;2.40;;;;;;;-6.79;100.00;99940.29;104265;1264;65789;-53
2024/01/17 00:12:56;;;;;;;4.10;1.60;;;;;;;-6.86;100.00;99947.98;104364;1269;72762;-53
2024/01/17 00:15:24;;;;;;;8.40;2.30;;;;;;;-6.93;100.00;99955.13;104241;1266;60557;-53
2024/01/17 00:17:51;;;;;;;8.00;2.10;;;;;;;-7.00;100.00;99952.34;104388;1263;59580;-54
2024/01/17 00:20:19;;;;;;;5.00;1.30;;;;;;;-7.05;100.00;99951.16;104787;1251;72270;-53
2024/01/17 00:22:46;;;;;;;9.00;1.70;;;;;;;-7.09;100.00;99949.16;105210;1257;65613;-55
2024/01/17 00:25:13;;;;;;;7.90;1.60;;;;;;;-7.11;100.00;99947.52;104884;1254;73133;-53
2024/01/17 00:27:41;;;;;;;4.70;1.30;;;;;;;-7.11;100.00;99950.15;104967;1255;59860;-54
2024/01/17 00:30:09;;;;;;;4.60;1.50;;;;;;;-7.09;100.00;99959.11;105119;1251;59675;-53
2024/01/17 00:32:37;;;;;;;3.40;1.20;;;;;;;-7.04;100.00;99960.77;108440;1251;72341;-54
2024/01/17 00:35:05;;;;;;;7.60;1.80;;;;;;;-7.00;100.00;99960.56;105030;1251;67431;-52
2024/01/17 00:37:32;;;;;;;6.10;1.50;;;;;;;-6.96;100.00;99964.83;105145;1257;72414;-53
2024/01/17 00:39:59;;;;;;;6.30;1.60;;;;;;;-6.96;100.00;99968.15;105115;1252;59745;-53
2024/01/17 00:42:27;;;;;;;2.70;1.00;;;;;;;-6.95;100.00;99973.58;105030;1251;59976;-54
2024/01/17 00:44:55;;;;;;;4.50;1.50;;;;;;;-6.94;100.00;99976.73;105070;1251;72003;-52
2024/01/17 00:47:22;;;;;;;4.30;1.40;;;;;;;-6.95;100.00;99974.46;105357;1254;64912;-54
2024/01/17 00:49:49;;;;;;;4.10;1.20;;;;;;;-6.94;100.00;99976.56;105099;1257;75540;-54
2024/01/17 00:52:17;;;;;;;3.80;1.30;;;;;;;-6.93;100.00;99975.73;104939;1251;60337;-54
2024/01/17 00:54:44;;;;;;;3.00;1.10;;;;;;;-6.90;100.00;99974.77;104906;1254;59709;-54
2024/01/17 00:57:11;;;;;;;4.90;1.20;;;;;;;-6.88;100.00;99977.42;106949;1251;73515;-54
2024/01/17 00:59:39;;;;;;;5.60;1.40;;;;;;;-6.89;100.00;99976.35;105039;1254;65480;-54
2024/01/17 01:02:06;;;;;;;6.20;1.80;;;;;;;-6.88;100.00;99979.69;105001;1258;71629;-54
2024/01/17 01:04:33;;;;;;;4.70;1.30;;;;;;;-6.87;100.00;99979.70;105108;1254;59752;-54
2024/01/17 01:07:01;;;;;;;7.20;1.30;;;;;;;-6.87;100.00;99978.33;105096;1258;59923;-55
2024/01/17 01:09:28;;;;;;;7.20;1.50;;;;;;;-6.86;100.00;99983.39;104940;1252;73774;-55
2024/01/17 01:11:55;;;;;;;5.00;1.30;;;;;;;-6.87;100.00;99985.82;105058;1256;66757;-54
2024/01/17 01:14:23;;;;;;;4.80;1.60;;;;;;;-6.89;100.00;99983.67;104798;1253;71630;-54
2024/01/17 01:16:50;;;;;;;5.80;1.80;;;;;;;-6.90;100.00;99982.97;104821;1257;60912;-52
2024/01/17 01:19:17;;;;;;;3.80;1.30;;;;;;;-6.90;100.00;99987.33;105157;1258;59714;-53
2024/01/17 01:21:45;;;;;;;7.40;2.60;;;;;;;-6.91;100.00;99994.63;104986;1253;72163;-53
2024/01/17 01:24:12;;;;;;;4.90;1.70;;;;;;;-6.91;100.00;99998.64;105041;1257;65740;-54
2024/01/17 01:26:39;;;;;;;4.90;1.40;;;;;;;-6.93;100.00;100002.60;104966;1255;72947;-54
2024/01/17 01:29:10;;;;;;;5.00;1.60;;;;;;;-6.94;100.00;100004.50;104781;1257;61891;-52
2024/01/17 01:31:37;;;;;;;3.80;1.10;;;;;;;-6.94;100.00;100010.06;104946;1253;60505;-53
2024/01/17 01:34:04;;;;;;;3.20;1.20;;;;;;;-6.94;100.00;100012.15;105046;1252;73005;-54
2024/01/17 01:36:32;;;;;;;4.70;1.10;;;;;;;-6.95;100.00;100009.70;106550;1257;67391;-52
2024/01/17 01:38:59;;;;;;;8.60;1.40;;;;;;;-6.94;100.00;100015.48;105073;1251;72886;-55
2024/01/17 01:41:27;;;;;;;4.80;1.10;;;;;;;-6.94;100.00;100015.30;105064;1254;59643;-53
2024/01/17 01:43:54;;;;;;;4.40;1.40;;;;;;;-6.94;100.00;100017.40;105121;1254;60267;-54
2024/01/17 01:46:28;;;;;;;3.70;1.00;;;;;;;-6.95;100.00;100017.70;105076;1256;74331;-55
2024/01/17 01:48:55;;;;;;;3.00;1.10;;;;;;;-6.97;100.00;100018.36;105023;1254;65634;-53
2024/01/17 01:51:23;;;;;;;4.90;1.50;;;;;;;-6.97;100.00;100019.40;105217;1254;71514;-53
2024/01/17 01:53:53;;;;;;;4.10;1.50;;;;;;;-6.99;100.00;100021.29;104730;1256;60834;-54
2024/01/17 01:56:21;;;;;;;6.20;1.30;;;;;;;-7.00;100.00;100026.15;105348;1254;60445;-53
2024/01/17 01:58:49;;;;;;;5.40;1.40;;;;;;;-7.00;100.00;100031.38;105245;1253;73062;-53
2024/01/17 02:01:16;;;;;;;4.20;1.60;;;;;;;-7.01;100.00;100033.61;106515;1253;66954;-53
2024/01/17 02:03:43;;;;;;;4.40;1.20;;;;;;;-7.01;100.00;100034.82;104869;1254;73368;-53
2024/01/17 02:06:14;;;;;;;5.30;1.30;;;;;;;-7.01;100.00;100031.01;105100;1253;59989;-53
2024/01/17 02:08:42;;;;;;;5.00;1.70;;;;;;;-7.01;100.00;100030.30;104927;1259;59662;-52
2024/01/17 02:11:09;;;;;;;5.20;1.40;;;;;;;-7.02;100.00;100037.09;104935;1254;71407;-53
2024/01/17 02:13:37;;;;;;;3.90;1.10;;;;;;;-7.02;100.00;100039.52;105094;1259;66983;-54
2024/01/17 02:16:04;;;;;;;3.80;1.20;;;;;;;-7.03;100.00;100039.83;104920;1254;72716;-54
2024/01/17 02:18:32;;;;;;;4.70;1.50;;;;;;;-7.03;100.00;100046.98;105275;1256;60968;-53
2024/01/17 02:20:59;;;;;;;3.90;1.10;;;;;;;-7.04;100.00;100046.95;105182;1253;59654;-55
2024/01/17 02:23:28;;;;;;;5.40;1.40;;;;;;;-7.04;100.00;100052.20;105072;1257;73209;-53
2024/01/17 02:25:56;;;;;;;5.00;1.30;;;;;;;-7.04;100.00;100056.02;105259;1254;66702;-53
2024/01/17 02:28:29;;;;;;;4.60;1.20;;;;;;;-7.04;100.00;100059.35;105182;1256;71456;-53
2024/01/17 02:30:58;;;;;;;3.70;1.30;;;;;;;-7.03;100.00;100063.04;105381;1253;59953;-51
2024/01/17 02:33:25;;;;;;;5.80;1.20;;;;;;;-7.03;100.00;100066.36;105249;1258;59746;-53
2024/01/17 02:35:53;;;;;;;5.60;1.40;;;;;;;-7.03;100.00;100067.40;105161;1256;71955;-54
2024/01/17 02:38:21;;;;;;;7.60;1.20;;;;;;;-7.05;100.00;100070.65;105399;1256;65843;-53
2024/01/17 02:40:48;;;;;;;4.40;1.30;;;;;;;-7.07;100.00;100063.62;105253;1253;71917;-52
2024/01/17 02:43:16;;;;;;;4.80;1.20;;;;;;;-7.11;100.00;100063.86;105155;1254;59898;-53
2024/01/17 02:45:43;;;;;;;9.10;1.60;;;;;;;-7.15;100.00;100064.29;105131;1254;60054;-55
2024/01/17 02:48:10;;;;;;;4.20;1.10;;;;;;;-7.17;100.00;100066.66;105063;1253;72092;-53
2024/01/17 02:50:39;;;;;;;5.50;1.10;;;;;;;-7.17;100.00;100067.55;105159;1254;66956;-54
2024/01/17 02:53:07;;;;;;;5.70;1.20;;;;;;;-7.15;100.00;100068.30;106961;1254;70659;-54
2024/01/17 02:55:34;;;;;;;4.20;1.10;;;;;;;-7.14;100.00;100070.57;104903;1259;61160;-53
2024/01/17 02:58:02;;;;;;;2.80;0.90;;;;;;;-7.12;100.00;100070.98;105141;1256;60500;-55
2024/01/17 03:00:29;;;;;;;2.80;1.00;;;;;;;-7.08;100.00;100070.05;104961;1256;73104;-54
2024/01/17 03:02:56;;;;;;;4.10;1.00;;;;;;;-7.09;100.00;100068.64;105022;1254;65729;-54
2024/01/17 03:05:24;;;;;;;4.70;1.20;;;;;;;-7.10;100.00;100071.04;104801;1253;73185;-54
2024/01/17 03:07:51;;;;;;;3.60;1.10;;;;;;;-7.14;100.00;100073.54;105752;1254;59887;-54
2024/01/17 03:10:18;;;;;;;5.00;1.40;;;;;;;-7.16;100.00;100071.93;105086;1254;61664;-53
2024/01/17 03:12:46;;;;;;;4.60;1.20;;;;;;;-7.18;100.00;100075.54;104867;1253;73004;-53
2024/01/17 03:15:13;;;;;;;3.40;1.10;;;;;;;-7.20;100.00;100080.02;104840;1259;66438;-54
2024/01/17 03:17:40;;;;;;;4.50;1.20;;;;;;;-7.22;100.00;100079.23;109071;1254;73113;-54
2024/01/17 03:20:10;;;;;;;4.70;1.20;;;;;;;-7.23;100.00;100083.92;105178;1259;61283;-54
2024/01/17 03:22:39;;;;;;;4.90;1.10;;;;;;;-7.27;100.00;100085.76;104940;1258;59626;-54
2024/01/17 03:25:08;;;;;;;4.00;1.20;;;;;;;-7.31;100.00;100086.16;105938;1254;74595;-53
2024/01/17 03:27:35;;;;;;;2.40;1.00;;;;;;;-7.34;100.00;100088.18;105531;1254;65722;-53
2024/01/17 03:30:04;;;;;;;4.50;1.30;;;;;;;-7.35;100.00;100092.83;105015;1254;72498;-53
2024/01/17 03:32:31;;;;;;;4.50;1.30;;;;;;;-7.37;100.00;100102.55;104937;1254;59742;-53
2024/01/17 03:34:59;;;;;;;3.90;1.50;;;;;;;-7.39;100.00;100106.67;105375;1256;59962;-59
2024/01/17 03:37:27;;;;;;;7.00;1.60;;;;;;;-7.40;100.00;100105.79;105141;1253;71484;-53
2024/01/17 03:39:54;;;;;;;7.00;1.60;;;;;;;-7.41;100.00;100110.11;105016;1256;66918;-53
2024/01/17 03:42:22;;;;;;;8.60;1.60;;;;;;;-7.43;100.00;100115.62;104951;1259;72783;-55
2024/01/17 03:44:49;;;;;;;6.50;1.60;;;;;;;-7.45;100.00;100115.20;104863;1254;61459;-53
2024/01/17 03:47:16;;;;;;;5.60;2.20;;;;;;;-7.47;100.00;100112.71;106644;1257;59527;-53
2024/01/17 03:49:44;;;;;;;7.00;3.00;;;;;;;-7.48;100.00;100109.89;104883;1253;73074;-53
2024/01/17 03:52:11;;;;;;;9.50;2.40;;;;;;;-7.50;100.00;100114.73;104814;1254;66873;-53
2024/01/17 03:54:38;;;;;;;5.60;2.40;;;;;;;-7.51;100.00;100120.42;104875;1254;71432;-53
2024/01/17 03:57:08;;;;;;;8.20;3.20;;;;;;;-7.53;100.00;100120.73;104996;1253;63441;-52
2024/01/17 03:59:36;;;;;;;8.50;1.90;;;;;;;-7.55;100.00;100124.66;109054;1256;60493;-53
2024/01/17 04:02:05;;;;;;;8.40;2.30;;;;;;;-7.59;100.00;100120.20;109086;1253;73962;-53
2024/01/17 04:04:32;;;;;;;8.80;3.10;;;;;;;-7.61;100.00;100122.60;109059;1252;67029;-53
2024/01/17 04:07:00;;;;;;;6.70;1.70;;;;;;;-7.61;100.00;100122.59;107951;1254;73279;-53
2024/01/17 04:09:27;;;;;;;5.90;1.90;;;;;;;-7.62;100.00;100124.45;104913;1257;60597;-52
2024/01/17 04:11:54;;;;;;;3.30;1.40;;;;;;;-7.63;100.00;100125.64;105008;1254;60550;-55
2024/01/17 04:14:21;;;;;;;5.30;1.80;;;;;;;-7.65;100.00;100126.99;105007;1257;71917;-55
2024/01/17 04:16:49;;;;;;;5.10;1.80;;;;;;;-7.69;100.00;100128.64;104776;1254;66917;-53
2024/01/17 04:19:16;;;;;;;5.90;1.70;;;;;;;-7.73;100.00;100128.84;104808;1254;74529;-53
2024/01/17 04:21:43;;;;;;;5.50;1.60;;;;;;;-7.75;100.00;100127.25;104808;1259;64948;-52
2024/01/17 04:24:11;;;;;;;4.20;1.40;;;;;;;-7.75;100.00;100125.33;104901;1254;60423;-54
2024/01/17 04:26:38;;;;;;;3.70;1.50;;;;;;;-7.75;100.00;100129.48;104919;1254;71663;-53
2024/01/17 04:29:05;;;;;;;4.40;1.60;;;;;;;-7.77;100.00;100127.70;104982;1253;67398;-53
2024/01/17 04:31:33;;;;;;;6.60;1.70;;;;;;;-7.78;100.00;100134.45;104784;1254;72553;-53
2024/01/17 04:34:02;;;;;;;3.80;1.80;;;;;;;-7.77;100.00;100132.92;104936;1254;60508;-53
2024/01/17 04:36:31;;;;;;;6.20;1.40;;;;;;;-7.76;100.00;100136.95;109136;1253;60019;-54
2024/01/17 04:39:00;;;;;;;6.00;1.80;;;;;;;-7.75;100.00;100141.70;106340;1254;74969;-53
2024/01/17 04:41:28;;;;;;;5.60;1.50;;;;;;;-7.77;100.00;100147.38;105806;1259;65809;-53
2024/01/17 04:43:55;;;;;;;8.30;2.10;;;;;;;-7.81;100.00;100153.86;104984;1253;72629;-54
2024/01/17 04:46:23;;;;;;;10.00;2.60;;;;;;;-7.86;100.00;100156.66;105192;1254;60656;-53
2024/01/17 04:48:50;;;;;;;8.10;2.80;;;;;;;-7.90;100.00;100166.45;104964;1254;60167;-53
2024/01/17 04:51:21;;;;;;;5.70;2.30;;;;;;;-7.94;100.00;100169.84;104888;1260;73830;-53
2024/01/17 04:53:48;;;;;;;10.30;3.40;;;;;;;-7.97;100.00;100175.13;105114;1256;66760;-53
2024/01/17 04:56:15;;;;;;;6.00;2.90;;;;;;;-7.99;100.00;100180.30;105049;1259;72947;-52
2024/01/17 04:58:46;;;;;;;6.00;2.80;;;;;;;-7.99;100.00;100186.20;104953;1259;61574;-53
2024/01/17 05:01:14;;;;;;;6.80;2.90;;;;;;;-8.00;100.00;100189.14;107524;1253;59215;-53
2024/01/17 05:03:42;;;;;;;9.00;3.40;;;;;;;-8.01;100.00;100193.98;107349;1254;72675;-53
2024/01/17 05:06:10;;;;;;;7.60;3.60;;;;;;;-8.01;100.00;100194.87;104993;1254;65521;-52
2024/01/17 05:08:38;;;;;;;8.40;2.80;;;;;;;-8.02;100.00;100197.62;105237;1253;71582;-53
2024/01/17 05:11:05;;;;;;;8.50;3.30;;;;;;;-8.03;100.00;100200.91;104927;1254;61167;-53
2024/01/17 05:13:33;;;;;;;5.50;2.20;;;;;;;-8.03;100.00;100203.52;104807;1256;60520;-52
2024/01/17 05:16:01;;;;;;;7.90;1.80;;;;;;;-8.06;100.00;100206.00;104853;1257;73937;-54
2024/01/17 05:18:28;;;;;;;8.60;2.80;;;;;;;-8.08;100.00;100210.66;104967;1259;66808;-50
2024/01/17 05:20:56;;;;;;;6.30;2.00;;;;;;;-8.10;100.00;100220.67;104900;1254;73324;-50
2024/01/17 05:23:23;;;;;;;8.70;2.40;;;;;;;-8.11;100.00;100226.40;105105;1256;61444;-53
2024/01/17 05:25:51;;;;;;;6.50;2.90;;;;;;;-8.10;100.00;100234.98;105255;1252;60478;-53
2024/01/17 05:28:18;;;;;;;4.80;2.80;;;;;;;-8.08;100.00;100238.34;104943;1254;73799;-53
2024/01/17 05:30:45;;;;;;;9.60;3.40;;;;;;;-8.10;100.00;100239.67;105043;1256;65531;-54
2024/01/17 05:33:13;;;;;;;9.50;3.30;;;;;;;-8.12;100.00;100246.94;104946;1256;72682;-54
2024/01/17 05:35:41;;;;;;;8.90;3.20;;;;;;;-8.11;100.00;100247.30;107617;1254;60433;-54
2024/01/17 05:38:09;;;;;;;6.90;2.70;;;;;;;-8.13;100.00;100247.58;105237;1254;60446;-55
2024/01/17 05:40:36;;;;;;;9.30;3.90;;;;;;;-8.17;100.00;100250.39;105106;1254;76220;-51
2024/01/17 05:43:04;;;;;;;7.30;2.80;;;;;;;-8.19;100.00;100257.98;105094;1254;66865;-55
2024/01/17 05:45:31;;;;;;;7.80;3.00;;;;;;;-8.21;100.00;100263.31;105017;1256;73078;-53
2024/01/17 05:47:58;;;;;;;11.70;4.30;;;;;;;-8.23;100.00;100271.92;105283;1254;60546;-53
2024/01/17 05:50:26;;;;;;;13.60;4.70;;;;;;;-8.26;100.00;100282.66;105842;1256;60494;-53
2024/01/17 05:52:53;;;;;;;13.50;5.10;;;;;;;-8.28;100.00;100291.27;104944;1254;73667;-54
2024/01/17 05:55:21;;;;;;;10.10;3.50;;;;;;;-8.32;100.00;100296.55;104976;1256;66690;-53
2024/01/17 05:57:50;;;;;;;13.80;5.00;;;;;;;-8.32;100.00;100300.55;105235;1256;71481;-53
2024/01/17 06:00:21;;;;;;;11.20;3.90;;;;;;;-8.34;100.00;100303.11;105292;1254;61035;-53
2024/01/17 06:02:49;;;;;;;8.60;3.20;;;;;;;-8.35;100.00;100307.06;106441;1257;60910;-53
2024/01/17 06:05:16;;;;;;;6.10;3.00;;;;;;;-8.35;100.00;100305.85;105286;1257;72808;-52
2024/01/17 06:07:44;;;;;;;8.10;2.60;;;;;;;-8.35;100.00;100304.62;105157;1256;67451;-53
2024/01/17 06:10:13;;;;;;;6.80;2.30;;;;;;;-8.38;100.00;100306.77;106682;1253;72734;-53
2024/01/17 06:12:41;;;;;;;8.30;2.30;;;;;;;-8.40;100.00;100308.96;105845;1254;61167;-53
2024/01/17 06:15:09;;;;;;;4.90;1.90;;;;;;;-8.41;100.00;100311.02;105720;1258;60460;-52
2024/01/17 06:17:37;;;;;;;4.70;1.90;;;;;;;-8.41;100.00;100315.40;105541;1254;72164;-53
2024/01/17 06:20:05;;;;;;;3.60;2.00;;;;;;;-8.37;100.00;100311.88;105336;1256;66777;-53
2024/01/17 06:22:33;;;;;;;5.30;2.00;;;;;;;-8.34;100.00;100310.06;105283;1256;72576;-52
2024/01/17 06:25:00;;;;;;;6.50;1.80;;;;;;;-8.32;100.00;100316.21;105076;1257;61118;-53
2024/01/17 06:27:27;;;;;;;6.10;1.80;;;;;;;-8.30;100.00;100318.36;105135;1254;60545;-53
2024/01/17 06:29:55;;;;;;;4.30;1.90;;;;;;;-8.29;100.00;100320.64;105461;1254;74246;-52
2024/01/17 06:32:23;;;;;;;5.40;2.00;;;;;;;-8.29;100.00;100324.30;105157;1254;65185;-52
2024/01/17 06:34:50;;;;;;;7.20;2.10;;;;;;;-8.28;100.00;100330.97;104926;1256;72656;-54
2024/01/17 06:37:18;;;;;;;5.10;1.80;;;;;;;-8.27;100.00;100332.92;106625;1254;60523;-54
2024/01/17 06:39:45;;;;;;;5.60;2.20;;;;;;;-8.21;100.00;100336.27;105312;1254;60524;-54
2024/01/17 06:42:13;;;;;;;8.20;2.60;;;;;;;-8.15;100.00;100338.73;105134;1256;73954;-53
2024/01/17 06:44:41;;;;;;;6.00;2.30;;;;;;;-8.13;100.00;100342.11;104972;1253;64678;-53
2024/01/17 06:47:08;;;;;;;7.10;3.40;;;;;;;-8.11;100.00;100337.66;105043;1256;72404;-54
2024/01/17 06:49:35;;;;;;;9.30;3.20;;;;;;;-8.10;100.00;100339.96;105101;1256;60546;-53
2024/01/17 06:52:03;;;;;;;7.50;2.90;;;;;;;-8.08;100.00;100343.87;107472;1256;59701;-52
2024/01/17 06:54:31;;;;;;;13.30;4.10;;;;;;;-8.07;100.00;100345.13;104683;1257;72651;-53
2024/01/17 06:56:58;;;;;;;16.90;3.50;;;;;;;-8.07;100.00;100347.20;104990;1256;67373;-54
2024/01/17 06:59:26;;;;;;;10.90;4.10;;;;;;;-8.04;100.00;100349.59;105084;1254;72708;-51
2024/01/17 07:01:54;;;;;;;6.60;3.10;;;;;;;-7.96;100.00;100345.14;104825;1260;60536;-52
2024/01/17 07:04:21;;;;;;;10.30;4.30;;;;;;;-7.87;100.00;100343.38;105171;1254;60463;-52
2024/01/17 07:06:49;;;;;;;13.50;4.30;;;;;;;-7.82;100.00;100344.09;105506;1253;74219;-53
2024/01/17 07:09:17;;;;;;;12.20;5.30;;;;;;;-7.76;100.00;100349.17;105939;1254;64843;-53
2024/01/17 07:11:44;;;;;;;9.50;4.40;;;;;;;-7.69;100.00;100349.77;104969;1254;72776;-53
2024/01/17 07:14:12;;;;;;;13.10;5.60;;;;;;;-7.64;100.00;100354.45;105106;1257;60572;-53
2024/01/17 07:16:39;;;;;;;15.90;5.50;;;;;;;-7.56;100.00;100354.54;105178;1257;60526;-54
2024/01/17 07:19:07;;;;;;;12.50;6.10;;;;;;;-7.50;100.00;100345.68;105085;1257;72668;-54
2024/01/17 07:21:39;;;;;;;20.50;7.70;;;;;;;-7.46;100.00;100343.89;109084;1253;67448;-54
2024/01/17 07:24:07;;;;;;;22.50;8.40;;;;;;;-7.40;100.00;100347.06;105344;1256;71380;-54
2024/01/17 07:26:35;;;;;;;20.20;8.20;;;;;;;-7.31;100.00;100351.36;105036;1254;60550;-54
2024/01/17 07:29:02;;;;;;;20.40;8.90;;;;;;;-7.24;100.00;100351.44;105069;1257;61341;-54
2024/01/17 07:31:30;;;;;;;17.90;6.20;;;;;;;-7.14;100.00;100351.21;105187;1252;71973;-53
2024/01/17 07:33:58;;;;;;;14.90;6.40;;;;;;;-7.04;100.00;100358.00;105010;1257;65707;-52
2024/01/17 07:36:25;;;;;;;15.80;6.30;;;;;;;-6.95;100.00;100352.34;105050;1254;71438;-53
2024/01/17 07:38:53;;;;;;;11.80;5.00;;;;;;;-6.90;100.00;100359.47;105107;1254;60543;-52
2024/01/17 07:41:20;;;;;;;10.20;4.70;;;;;;;-6.86;100.00;100361.68;105052;1257;60482;-52
2024/01/17 07:43:48;;;;;;;12.70;4.70;;;;;;;-6.82;100.00;100367.07;105071;1254;71524;-53
2024/01/17 07:46:16;;;;;;;14.80;6.30;;;;;;;-6.76;100.00;100369.14;105216;1257;65816;-52
2024/01/17 07:48:44;;;;;;;17.50;5.70;;;;;;;-6.69;100.00;100371.09;105231;1254;71491;-53
2024/01/17 07:51:13;;;;;;;14.20;5.10;;;;;;;-6.64;100.00;100375.98;105021;1251;60519;-52
2024/01/17 07:53:41;;;;;;;11.90;4.80;;;;;;;-6.57;100.00;100378.64;106040;1252;60513;-52
2024/01/17 07:56:09;;;;;;;13.70;5.20;;;;;;;-6.47;100.00;100379.27;105363;1256;75481;-52
2024/01/17 07:58:37;;;;;;;10.10;3.90;;;;;;;-6.39;100.00;100381.08;106265;1251;70046;-51
2024/01/17 08:01:05;;;;;;;9.10;3.90;;;;;;;-6.33;100.00;100388.08;105134;1257;72785;-51
2024/01/17 08:03:33;;;;;;;10.40;4.60;;;;;;;-6.28;100.00;100388.41;105315;1257;60932;-53
2024/01/17 08:06:00;;;;;;;14.10;4.40;;;;;;;-6.20;100.00;100386.02;105032;1257;60533;-51
2024/01/17 08:08:28;;;;;;;13.90;4.80;;;;;;;-6.12;100.00;100381.19;105051;1259;72827;-52
2024/01/17 08:10:55;;;;;;;9.50;3.70;;;;;;;-6.03;100.00;100392.95;104949;1251;67413;-51
2024/01/17 08:13:22;;;;;;;9.60;3.50;;;;;;;-5.97;100.00;100386.83;105083;1254;71420;-52
2024/01/17 08:15:50;;;;;;;11.10;3.30;;;;;;;-5.90;100.00;100393.33;105199;1260;60542;-54
2024/01/17 08:18:18;;;;;;;8.90;2.50;;;;;;;-5.84;100.00;100398.33;107597;1252;60552;-53
2024/01/17 08:20:46;;;;;;;8.20;3.10;;;;;;;-5.81;100.00;100399.30;104989;1257;74882;-53
2024/01/17 08:23:13;;;;;;;6.70;2.10;;;;;;;-5.79;100.00;100395.00;105765;1256;66212;-52
2024/01/17 08:25:41;;;;;;;5.80;2.60;;;;;;;-5.81;100.00;100391.10;105146;1255;73149;-50
2024/01/17 08:28:08;;;;;;;7.00;1.90;;;;;;;-5.82;100.00;100388.10;104973;1252;60865;-52
2024/01/17 08:30:35;;;;;;;7.70;2.40;;;;;;;-5.77;100.00;100393.29;105219;1255;60701;-52
2024/01/17 08:33:03;;;;;;;8.60;2.80;;;;;;;-5.75;100.00;100396.33;105220;1252;72546;-53
2024/01/17 08:35:31;;;;;;;10.70;3.20;;;;;;;-5.70;100.00;100407.28;106040;1256;67870;-52
2024/01/17 08:37:59;;;;;;;12.20;3.10;;;;;;;-5.66;100.00;100414.40;105064;1256;70424;-52
2024/01/17 08:40:26;;;;;;;6.50;2.90;;;;;;;-5.61;100.00;100420.30;105129;1251;60999;-52
2024/01/17 08:42:53;;;;;;;8.00;2.20;;;;;;;-5.59;100.00;100422.09;105369;1257;60438;-52
2024/01/17 08:45:21;;;;;;;7.30;2.00;;;;;;;-5.55;100.00;100418.38;105053;1256;73899;-52
2024/01/17 08:47:48;;;;;;;14.40;5.20;;;;;;;-5.52;100.00;100413.04;105085;1256;67190;-52
2024/01/17 08:50:16;;;;;;;9.10;3.50;;;;;;;-5.44;100.00;100413.07;105445;1254;71276;-51
2024/01/17 08:52:43;;;;;;;10.30;3.40;;;;;;;-5.41;100.00;100411.22;105130;1256;60479;-52
2024/01/17 08:55:11;;;;;;;7.70;3.10;;;;;;;-5.40;100.00;100415.27;105114;1253;60537;-52
2024/01/17 08:57:38;;;;;;;7.70;3.10;;;;;;;-5.39;100.00;100419.52;105092;1254;76805;-53
2024/01/17 09:00:06;;;;;;;10.60;3.80;;;;;;;-5.40;100.00;100426.84;105091;1256;65778;-53
2024/01/17 09:02:34;;;;;;;7.10;2.50;;;;;;;-5.43;100.00;100426.21;105419;1254;73089;-52
2024/01/17 09:05:02;;;;;;;5.70;2.10;;;;;;;-5.46;100.00;100424.39;105078;1257;60503;-52
2024/01/17 09:07:30;;;;;;;11.20;4.70;;;;;;;-5.48;100.00;100428.36;105339;1251;60369;-52
2024/01/17 09:10:00;;;;;;;10.40;4.00;;;;;;;-5.50;100.00;100431.42;105273;1253;76003;-53
2024/01/17 09:12:27;;;;;;;10.60;3.80;;;;;;;-5.59;100.00;100435.23;105274;1257;65627;-52
2024/01/17 09:14:55;;;;;;;10.40;4.00;;;;;;;-5.66;100.00;100439.20;105030;1256;70999;-53
2024/01/17 09:17:23;;;;;;;5.60;2.40;;;;;;;-5.68;100.00;100436.88;105030;1256;60460;-52
2024/01/17 09:19:51;;;;;;;9.60;2.90;;;;;;;-5.69;100.00;100431.79;105715;1256;60453;-52
2024/01/17 09:22:18;;;;;;;8.90;3.10;;;;;;;-5.76;100.00;100433.89;104906;1257;74221;-52
2024/01/17 09:24:47;;;;;;;8.50;3.70;;;;;;;-5.80;100.00;100435.52;105057;1254;67384;-52
2024/01/17 09:27:14;;;;;;;7.50;2.80;;;;;;;-5.88;100.00;100436.35;104835;1259;72726;-52
2024/01/17 09:29:42;;;;;;;12.00;3.10;;;;;;;-5.93;100.00;100433.96;104973;1254;60408;-52
2024/01/17 09:32:09;;;;;;;7.00;2.70;;;;;;;-5.97;100.00;100425.13;109078;1256;58829;-53
2024/01/17 09:34:41;;;;;;;8.50;3.10;;;;;;;-5.97;100.00;100427.23;109293;1253;74249;-53
2024/01/17 09:37:10;;;;;;;9.70;2.80;;;;;;;-5.92;100.00;100429.77;106740;1251;67496;-49
2024/01/17 09:39:37;;;;;;;7.80;2.70;;;;;;;-5.85;100.00;100430.67;107710;1256;72717;-53
2024/01/17 09:42:05;;;;;;;8.20;3.10;;;;;;;-5.75;100.00;100429.70;105077;1252;60489;-52
2024/01/17 09:44:34;;;;;;;14.20;5.40;;;;;;;-5.65;100.00;100428.59;109271;1251;58809;-53
2024/01/17 09:47:02;;;;;;;31.00;12.70;;;;;;;-5.51;100.00;100423.20;109209;1254;73921;-53
2024/01/17 09:49:31;;;;;;;11.10;4.40;;;;;;;-5.37;100.00;100423.76;105371;1261;67126;-53
2024/01/17 09:52:03;;;;;;;9.20;3.30;;;;;;;-5.20;100.00;100429.24;109200;1255;72728;-54
2024/01/17 09:54:39;;;;;;;6.40;2.60;;;;;;;-5.06;100.00;100427.14;109088;1254;60093;-53
2024/01/17 09:57:09;;;;;;;7.30;2.20;;;;;;;-4.95;100.00;100425.51;106543;1257;60536;-53
2024/01/17 09:59:42;;;;;;;8.10;2.60;;;;;;;-4.85;100.00;100426.80;109199;1255;72638;-53
2024/01/17 10:02:09;;;;;;;6.40;2.10;;;;;;;-4.75;100.00;100420.91;109048;1251;65415;-53
2024/01/17 10:04:37;;;;;;;7.00;2.30;;;;;;;-4.66;100.00;100414.11;109117;1254;71441;-53
2024/01/17 10:07:04;;;;;;;10.20;3.10;;;;;;;-4.57;100.00;100408.55;107841;1256;60577;-52
2024/01/17 10:09:31;;;;;;;5.70;2.50;;;;;;;-4.49;100.00;100405.73;105002;1257;61252;-52
2024/01/17 10:11:59;;;;;;;21.40;7.80;;;;;;;-4.45;100.00;100409.86;105294;1257;72224;-52
2024/01/17 10:14:27;;;;;;;16.60;7.30;;;;;;;-4.41;100.00;100412.05;105071;1257;67159;-52
2024/01/17 10:16:54;;;;;;;13.80;6.20;;;;;;;-4.37;100.00;100412.69;104945;1263;72753;-51
2024/01/17 10:19:24;;;;;;;16.40;6.00;;;;;;;-4.33;100.00;100408.55;104989;1257;60527;-51
2024/01/17 10:21:52;;;;;;;11.00;4.10;;;;;;;-4.30;100.00;100404.59;105546;1256;60447;-53
2024/01/17 10:24:20;;;;;;;15.00;6.60;;;;;;;-4.33;100.00;100401.55;105201;1260;72407;-51
2024/01/17 10:26:51;;;;;;;16.70;6.50;;;;;;;-4.39;100.00;100403.17;105553;1251;65838;-51
2024/01/17 10:29:18;;;;;;;17.30;6.70;;;;;;;-4.41;100.00;100397.67;106660;1256;73040;-52
2024/01/17 10:31:46;;;;;;;16.30;6.70;;;;;;;-4.39;100.00;100399.48;105026;1259;60569;-51
2024/01/17 10:34:13;;;;;;;13.70;6.50;;;;;;;-4.37;100.00;100400.07;105158;1257;61044;-51
2024/01/17 10:36:42;;;;;;;16.70;8.30;;;;;;;-4.37;100.00;100400.23;104997;1256;72630;-51
2024/01/17 10:39:11;;;;;;;28.60;8.00;;;;;;;-4.38;100.00;100401.78;105185;1258;67384;-51
2024/01/17 10:41:54;;;;;;;22.40;8.90;;;;;;;-4.44;100.00;100397.82;105234;1257;72786;-51
2024/01/17 10:44:22;;;;;;;22.20;7.40;;;;;;;-4.48;100.00;100396.65;105339;1253;61098;-51
2024/01/17 10:46:50;;;;;;;19.40;7.60;;;;;;;-4.51;100.00;100393.97;105106;1257;60398;-54
2024/01/17 10:49:21;;;;;;;19.60;6.40;;;;;;;-4.52;100.00;100389.06;104817;1254;72687;-53
2024/01/17 10:52:02;;;;;;;13.50;5.10;;;;;;;-4.51;100.00;100385.39;105344;1254;67589;-53
2024/01/17 10:54:37;;;;;;;15.80;5.70;;;;;;;-4.52;100.00;100382.39;105358;1256;70350;-51
2024/01/17 10:57:06;;;;;;;13.70;4.70;;;;;;;-4.60;100.00;100377.67;105749;1258;64142;-52
2024/01/17 10:59:33;;;;;;;15.40;5.20;;;;;;;-4.66;100.00;100375.59;104887;1259;60577;-51
2024/01/17 11:02:01;;;;;;;10.00;3.70;;;;;;;-4.73;100.00;100367.02;105211;1260;73913;-51
2024/01/17 11:04:29;;;;;;;8.50;3.50;;;;;;;-4.75;100.00;100365.77;105159;1257;66914;-51
2024/01/17 11:06:57;;;;;;;8.40;3.50;;;;;;;-4.71;100.00;100360.24;105063;1257;72747;-52
2024/01/17 11:09:26;;;;;;;7.80;3.30;;;;;;;-4.69;100.00;100358.55;104831;1259;60361;-52
2024/01/17 11:11:53;;;;;;;7.60;3.40;;;;;;;-4.65;100.00;100359.15;105023;1259;60453;-53